createdAt,value
2023-09-27T00:01:38.432Z,64
2023-09-27T00:04:09.219Z,63
2023-09-27T00:06:40.518Z,61
2023-09-27T00:09:11.090Z,60
2023-09-27T00:11:41.565Z,60
2023-09-27T00:14:12.330Z,59
2023-09-27T00:16:42.849Z,59
2023-09-27T00:19:13.202Z,60
2023-09-27T00:21:43.887Z,60
2023-09-27T00:24:14.625Z,60
2023-09-27T00:26:46.043Z,59
2023-09-27T00:29:17.426Z,58
2023-09-27T00:31:48.526Z,58
2023-09-27T00:34:19.689Z,58
2023-09-27T00:36:50.502Z,56
2023-09-27T00:39:22.169Z,56
2023-09-27T00:41:51.274Z,56
2023-09-27T00:44:21.918Z,55
2023-09-27T00:46:52.582Z,56
2023-09-27T00:49:23.212Z,56
2023-09-27T00:51:53.807Z,56
2023-09-27T00:54:24.900Z,56
2023-09-27T00:56:56.293Z,55
2023-09-27T00:59:28.077Z,55
2023-09-27T01:01:59.050Z,54
2023-09-27T01:04:29.944Z,54
2023-09-27T01:07:00.877Z,54
2023-09-27T01:09:31.618Z,54
2023-09-27T01:12:02.738Z,53
2023-09-27T01:14:33.389Z,54
2023-09-27T01:17:04.891Z,54
2023-09-27T01:19:35.763Z,53
2023-09-27T01:22:06.017Z,53
2023-09-27T01:24:37.907Z,53
2023-09-27T01:27:07.890Z,53
2023-09-27T01:29:38.825Z,52
2023-09-27T01:32:09.500Z,53
2023-09-27T01:34:40.355Z,52
2023-09-27T01:37:09.311Z,53
2023-09-27T01:39:39.778Z,54
2023-09-27T01:42:10.304Z,52
2023-09-27T01:44:41.166Z,52
2023-09-27T01:47:12.307Z,52
2023-09-27T01:49:45.777Z,52
2023-09-27T01:52:15.100Z,52
2023-09-27T01:54:45.953Z,52
2023-09-27T01:57:17.252Z,52
2023-09-27T01:59:46.209Z,52
2023-09-27T02:02:17.286Z,52
2023-09-27T02:04:48.168Z,51
2023-09-27T02:07:19.101Z,52
2023-09-27T02:09:50.135Z,52
2023-09-27T02:12:21.312Z,52
2023-09-27T02:14:50.317Z,52
2023-09-27T02:17:20.777Z,51
2023-09-27T02:19:52.972Z,52
2023-09-27T02:22:24.047Z,52
2023-09-27T02:24:54.796Z,52
2023-09-27T02:27:25.728Z,52
2023-09-27T02:29:56.237Z,53
2023-09-27T02:32:26.783Z,52
2023-09-27T02:34:57.296Z,53
2023-09-27T02:37:27.636Z,53
2023-09-27T02:39:58.053Z,54
2023-09-27T02:42:28.976Z,55
2023-09-27T02:45:00.345Z,53
2023-09-27T02:47:32.297Z,54
2023-09-27T02:50:02.408Z,55
2023-09-27T02:52:33.633Z,54
2023-09-27T02:55:04.523Z,54
2023-09-27T02:57:34.021Z,54
2023-09-27T03:00:04.509Z,55
2023-09-27T03:02:35.181Z,53
2023-09-27T03:05:05.781Z,53
2023-09-27T03:07:36.854Z,53
2023-09-27T03:10:07.358Z,53
2023-09-27T03:12:37.938Z,53
2023-09-27T03:15:09.446Z,53
2023-09-27T03:17:39.852Z,53
2023-09-27T03:20:11.490Z,54
2023-09-27T03:22:42.638Z,54
2023-09-27T03:25:13.764Z,55
2023-09-27T03:27:45.087Z,55
2023-09-27T03:30:15.738Z,56
2023-09-27T03:32:46.229Z,56
2023-09-27T03:35:17.321Z,55
2023-09-27T03:37:48.339Z,55
2023-09-27T03:40:17.528Z,55
2023-09-27T03:42:48.346Z,55
2023-09-27T03:45:18.778Z,56
2023-09-27T03:47:49.908Z,56
2023-09-27T03:50:20.901Z,57
2023-09-27T03:52:51.434Z,56
2023-09-27T03:55:21.959Z,56
2023-09-27T03:57:52.734Z,56
2023-09-27T04:00:24.848Z,57
2023-09-27T04:02:54.998Z,57
2023-09-27T04:05:25.187Z,57
2023-09-27T04:07:55.601Z,57
2023-09-27T04:10:24.406Z,58
2023-09-27T04:12:54.920Z,58
2023-09-27T04:15:24.287Z,59
2023-09-27T04:17:54.772Z,59
2023-09-27T04:20:23.928Z,59
2023-09-27T04:22:54.645Z,59
2023-09-27T04:25:24.028Z,59
2023-09-27T04:27:55.562Z,60
2023-09-27T04:30:24.383Z,61
2023-09-27T04:32:55.383Z,61
2023-09-27T04:35:26.345Z,61
2023-09-27T04:37:56.891Z,61
2023-09-27T04:40:27.739Z,60
2023-09-27T04:42:59.643Z,60
2023-09-27T04:45:30.338Z,61
2023-09-27T04:48:00.679Z,60
2023-09-27T04:50:31.652Z,60
2023-09-27T04:53:02.093Z,61
2023-09-27T04:55:32.632Z,61
2023-09-27T04:58:03.027Z,62
2023-09-27T05:00:31.843Z,61
2023-09-27T05:03:02.090Z,61
2023-09-27T05:05:33.128Z,61
2023-09-27T05:08:03.524Z,61
2023-09-27T05:10:34.146Z,61
2023-09-27T05:13:04.707Z,60
2023-09-27T05:15:35.489Z,60
2023-09-27T05:18:06.470Z,61
2023-09-27T05:20:36.874Z,60
2023-09-27T05:23:07.585Z,60
2023-09-27T05:25:39.381Z,60
2023-09-27T05:28:10.267Z,60
2023-09-27T05:30:40.977Z,60
2023-09-27T05:33:11.401Z,59
2023-09-27T05:35:40.312Z,61
2023-09-27T05:38:11.591Z,61
2023-09-27T05:40:42.106Z,61
2023-09-27T05:43:13.423Z,61
2023-09-27T05:45:46.974Z,61
2023-09-27T05:48:17.676Z,60
2023-09-27T05:50:48.194Z,59
2023-09-27T05:53:18.945Z,60
2023-09-27T05:55:49.674Z,60
2023-09-27T05:58:20.128Z,60
2023-09-27T06:00:50.358Z,59
2023-09-27T06:03:21.493Z,59
2023-09-27T06:05:51.828Z,59
2023-09-27T06:08:22.365Z,58
2023-09-27T06:10:53.172Z,58
2023-09-27T06:13:24.585Z,58
2023-09-27T06:15:55.630Z,58
2023-09-27T06:18:26.583Z,57
2023-09-27T06:20:57.140Z,57
2023-09-27T06:23:27.714Z,57
2023-09-27T06:25:58.196Z,57
2023-09-27T06:28:28.707Z,56
2023-09-27T06:30:59.490Z,56
2023-09-27T06:33:29.982Z,55
2023-09-27T06:36:00.307Z,56
2023-09-27T06:38:31.061Z,55
2023-09-27T06:41:04.196Z,55
2023-09-27T06:43:35.058Z,55
2023-09-27T06:46:05.991Z,55
2023-09-27T06:48:36.506Z,54
2023-09-27T06:51:06.775Z,54
2023-09-27T06:53:37.207Z,54
2023-09-27T06:56:07.607Z,53
2023-09-27T06:58:38.760Z,52
2023-09-27T07:01:09.858Z,52
2023-09-27T07:03:40.976Z,51
2023-09-27T07:06:11.827Z,48
2023-09-27T07:08:42.752Z,49
2023-09-27T07:11:13.121Z,48
2023-09-27T07:13:44.005Z,47
2023-09-27T07:16:14.852Z,47
2023-09-27T07:18:45.718Z,46
2023-09-27T07:21:16.409Z,46
2023-09-27T07:23:46.586Z,45
2023-09-27T07:26:17.381Z,46
2023-09-27T07:28:48.118Z,46
2023-09-27T07:31:19.458Z,45
2023-09-27T07:33:49.585Z,45
2023-09-27T07:36:20.057Z,46
2023-09-27T07:38:50.620Z,45
2023-09-27T07:41:22.355Z,44
2023-09-27T07:43:53.753Z,45
2023-09-27T07:46:24.342Z,45
2023-09-27T07:48:56.204Z,44
2023-09-27T07:51:27.188Z,44
2023-09-27T07:53:57.836Z,45
2023-09-27T07:56:28.650Z,45
2023-09-27T07:58:59.762Z,44
2023-09-27T08:01:30.450Z,43
2023-09-27T08:04:00.959Z,43
2023-09-27T08:06:33.349Z,43
2023-09-27T08:09:03.923Z,42
2023-09-27T08:11:35.818Z,44
2023-09-27T08:14:05.998Z,41
2023-09-27T08:16:36.763Z,42
2023-09-27T08:19:07.868Z,41
2023-09-27T08:21:38.267Z,41
2023-09-27T08:24:08.968Z,41
2023-09-27T08:26:40.066Z,41
2023-09-27T08:29:10.534Z,41
2023-09-27T08:31:41.668Z,42
2023-09-27T08:34:12.325Z,41
2023-09-27T08:36:43.377Z,41
2023-09-27T08:39:14.259Z,40
2023-09-27T08:41:45.277Z,41
2023-09-27T08:44:16.399Z,42
2023-09-27T08:46:47.506Z,41
2023-09-27T08:49:18.632Z,41
2023-09-27T08:51:49.269Z,42
2023-09-27T08:54:19.840Z,41
2023-09-27T08:56:50.414Z,41
2023-09-27T08:59:21.219Z,41
2023-09-27T09:01:51.659Z,41
2023-09-27T09:04:22.623Z,42
2023-09-27T09:06:53.172Z,41
2023-09-27T09:09:22.084Z,41
2023-09-27T09:11:52.834Z,41
2023-09-27T09:14:23.574Z,41
2023-09-27T09:16:54.082Z,41
2023-09-27T09:19:41.499Z,41
2023-09-27T09:21:56.124Z,42
2023-09-27T09:24:27.271Z,41
2023-09-27T09:26:58.075Z,41
2023-09-27T09:29:29.399Z,40
2023-09-27T09:31:59.657Z,41
2023-09-27T09:34:30.759Z,41
2023-09-27T09:37:02.401Z,40
2023-09-27T09:39:33.682Z,40
2023-09-27T09:42:03.947Z,41
2023-09-27T09:44:38.277Z,40
2023-09-27T09:47:09.717Z,41
2023-09-27T09:49:40.734Z,41
2023-09-27T09:52:11.637Z,41
2023-09-27T09:54:42.662Z,40
2023-09-27T09:57:19.067Z,40
2023-09-27T09:59:44.151Z,40
2023-09-27T10:02:14.546Z,40
2023-09-27T10:04:45.250Z,40
2023-09-27T10:07:15.833Z,40
2023-09-27T10:09:46.746Z,40
2023-09-27T10:12:17.722Z,40
2023-09-27T10:14:48.726Z,40
2023-09-27T10:17:19.307Z,41
2023-09-27T10:19:49.810Z,41
2023-09-27T10:22:21.057Z,41
2023-09-27T10:24:51.697Z,40
2023-09-27T10:27:22.724Z,40
2023-09-27T10:29:53.223Z,39
2023-09-27T10:32:24.159Z,39
2023-09-27T10:34:54.234Z,39
2023-09-27T10:37:24.458Z,40
2023-09-27T10:39:55.631Z,40
2023-09-27T10:42:26.345Z,39
2023-09-27T10:44:57.307Z,40
2023-09-27T10:47:28.745Z,40
2023-09-27T10:49:59.236Z,39
2023-09-27T10:52:29.828Z,38
2023-09-27T10:55:00.581Z,38
2023-09-27T10:57:35.322Z,37
2023-09-27T11:00:06.189Z,37
2023-09-27T11:02:37.305Z,38
2023-09-27T11:05:08.392Z,37
2023-09-27T11:07:39.026Z,38
2023-09-27T11:10:09.720Z,37
2023-09-27T11:12:44.540Z,38
2023-09-27T11:15:15.252Z,38
2023-09-27T11:17:45.835Z,37
2023-09-27T11:20:16.408Z,38
2023-09-27T11:22:47.589Z,37
2023-09-27T11:25:21.532Z,38
2023-09-27T11:27:51.688Z,37
2023-09-27T11:30:20.660Z,36
2023-09-27T11:32:51.968Z,38
2023-09-27T11:35:21.475Z,38
2023-09-27T11:37:52.342Z,36
2023-09-27T11:40:23.183Z,37
2023-09-27T11:42:53.706Z,36
2023-09-27T11:45:24.606Z,37
2023-09-27T11:47:55.525Z,37
2023-09-27T11:50:26.299Z,36
2023-09-27T11:52:56.625Z,36
2023-09-27T11:55:27.371Z,37
2023-09-27T11:57:56.010Z,36
2023-09-27T12:00:24.876Z,35
2023-09-27T12:02:57.589Z,35
2023-09-27T12:05:25.962Z,36
2023-09-27T12:07:55.766Z,36
2023-09-27T12:10:26.749Z,37
2023-09-27T12:12:57.544Z,37
2023-09-27T12:15:28.592Z,36
2023-09-27T12:18:02.415Z,36
2023-09-27T12:23:04.081Z,36
2023-09-27T12:25:35.201Z,36
2023-09-27T12:28:06.053Z,35
2023-09-27T12:30:35.220Z,35
2023-09-27T12:33:06.957Z,37
2023-09-27T12:35:38.096Z,36
2023-09-27T12:38:12.504Z,36
2023-09-27T12:40:43.482Z,36
2023-09-27T12:43:14.811Z,35
2023-09-27T12:45:48.937Z,35
2023-09-27T12:48:19.616Z,35
2023-09-27T12:50:50.610Z,35
2023-09-27T12:53:21.662Z,34
2023-09-27T12:55:52.534Z,35
2023-09-27T13:01:02.313Z,35
2023-09-27T13:03:33.573Z,36
2023-09-27T13:06:04.261Z,35
2023-09-27T13:08:35.246Z,34
2023-09-27T13:11:06.246Z,35
2023-09-27T13:13:38.300Z,36
2023-09-27T13:16:09.726Z,35
2023-09-27T13:18:40.788Z,34
2023-09-27T13:21:11.779Z,35
2023-09-27T13:23:42.189Z,34
2023-09-27T13:26:13.130Z,34
2023-09-27T13:28:43.977Z,37
2023-09-27T13:31:14.780Z,34
2023-09-27T13:33:48.981Z,35
2023-09-27T13:36:16.960Z,34
2023-09-27T13:38:48.112Z,35
2023-09-27T13:41:19.200Z,35
2023-09-27T13:43:49.953Z,35
2023-09-27T13:46:21.252Z,34
2023-09-27T13:48:52.445Z,35
2023-09-27T13:51:22.806Z,35
2023-09-27T13:53:54.051Z,35
2023-09-27T13:56:24.744Z,36
2023-09-27T13:58:55.756Z,35
2023-09-27T14:01:26.554Z,35
2023-09-27T14:03:57.809Z,36
2023-09-27T14:06:29.120Z,36
2023-09-27T14:09:00.073Z,36
2023-09-27T14:11:30.825Z,35
2023-09-27T14:14:00.935Z,35
2023-09-27T14:16:31.690Z,35
2023-09-27T14:19:02.592Z,35
2023-09-27T14:21:33.576Z,36
2023-09-27T14:24:04.561Z,36
2023-09-27T14:26:34.980Z,35
2023-09-27T14:29:03.636Z,36
2023-09-27T14:31:34.878Z,37
2023-09-27T14:34:05.882Z,36
2023-09-27T14:36:36.717Z,35
2023-09-27T14:39:07.755Z,37
2023-09-27T14:41:38.970Z,36
2023-09-27T14:44:09.954Z,36
2023-09-27T14:46:40.986Z,36
2023-09-27T14:49:11.696Z,37
2023-09-27T14:51:42.948Z,37
2023-09-27T14:54:13.552Z,38
2023-09-27T14:56:42.587Z,37
2023-09-27T14:59:13.185Z,36
2023-09-27T15:01:44.543Z,38
2023-09-27T15:04:15.519Z,39
2023-09-27T15:06:46.460Z,37
2023-09-27T15:09:17.420Z,37
2023-09-27T15:11:48.374Z,38
2023-09-27T15:14:19.214Z,38
2023-09-27T15:16:48.419Z,38
2023-09-27T15:19:19.138Z,38
2023-09-27T15:21:49.916Z,38
2023-09-27T15:24:18.842Z,39
2023-09-27T15:26:47.864Z,40
2023-09-27T15:29:19.264Z,40
2023-09-27T15:31:50.887Z,41
2023-09-27T15:34:22.081Z,40
2023-09-27T15:36:53.356Z,41
2023-09-27T15:39:24.137Z,41
2023-09-27T15:41:56.020Z,40
2023-09-27T15:44:26.850Z,40
2023-09-27T15:46:57.823Z,41
2023-09-27T15:49:28.783Z,40
2023-09-27T15:51:59.629Z,41
2023-09-27T15:54:30.588Z,41
2023-09-27T15:57:01.566Z,40
2023-09-27T15:59:32.342Z,40
2023-09-27T16:02:03.706Z,41
2023-09-27T16:04:42.067Z,41
2023-09-27T16:07:05.000Z,41
2023-09-27T16:09:35.870Z,42
2023-09-27T16:12:04.668Z,42
2023-09-27T16:14:35.056Z,42
2023-09-27T16:17:06.031Z,43
2023-09-27T16:19:36.373Z,42
2023-09-27T16:22:06.664Z,43
2023-09-27T16:24:37.306Z,43
2023-09-27T16:27:07.639Z,44
2023-09-27T16:29:37.923Z,44
2023-09-27T16:32:08.325Z,44
2023-09-27T16:34:38.840Z,44
2023-09-27T16:37:09.178Z,44
2023-09-27T16:39:39.688Z,45
2023-09-27T16:42:10.178Z,45
2023-09-27T16:44:40.229Z,45
2023-09-27T16:47:10.693Z,46
2023-09-27T16:49:41.316Z,45
2023-09-27T16:52:11.406Z,46
2023-09-27T16:54:41.514Z,47
2023-09-27T16:57:11.714Z,47
2023-09-27T16:59:42.232Z,48
2023-09-27T17:02:13.671Z,47
2023-09-27T17:04:44.457Z,46
2023-09-27T17:07:15.045Z,48
2023-09-27T17:09:43.666Z,47
2023-09-27T17:12:13.929Z,48
2023-09-27T17:14:44.714Z,49
2023-09-27T17:17:14.984Z,49
2023-09-27T17:19:45.460Z,49
2023-09-27T17:22:14.499Z,50
2023-09-27T17:24:45.250Z,50
2023-09-27T17:27:16.562Z,50
2023-09-27T17:29:46.764Z,50
2023-09-27T17:32:16.802Z,51
2023-09-27T17:34:47.382Z,51
2023-09-27T17:37:17.670Z,51
2023-09-27T17:39:48.478Z,51
2023-09-27T17:42:17.427Z,52
2023-09-27T17:44:49.021Z,52
2023-09-27T17:47:18.450Z,53
2023-09-27T17:49:49.714Z,53
2023-09-27T17:52:19.770Z,54
2023-09-27T17:54:50.926Z,54
2023-09-27T17:57:22.072Z,54
2023-09-27T17:59:52.668Z,55
2023-09-27T18:02:27.048Z,56
2023-09-27T18:04:57.041Z,56
2023-09-27T18:07:27.443Z,57
2023-09-27T18:09:58.070Z,57
2023-09-27T18:12:28.925Z,57
2023-09-27T18:15:00.359Z,56
2023-09-27T18:17:29.797Z,57
2023-09-27T18:20:00.998Z,57
2023-09-27T18:22:29.546Z,58
2023-09-27T18:25:00.266Z,58
2023-09-27T18:27:30.794Z,58
2023-09-27T18:30:02.462Z,59
2023-09-27T18:32:30.610Z,58
2023-09-27T18:35:00.849Z,58
2023-09-27T18:37:32.101Z,58
2023-09-27T18:40:02.438Z,59
2023-09-27T18:42:32.563Z,59
2023-09-27T18:45:03.442Z,59
2023-09-27T18:47:34.411Z,59
2023-09-27T18:50:04.732Z,60
2023-09-27T18:52:34.780Z,60
2023-09-27T18:55:03.667Z,60
2023-09-27T18:57:32.392Z,61
2023-09-27T19:00:03.532Z,61
2023-09-27T19:02:34.405Z,61
2023-09-27T19:05:04.941Z,61
2023-09-27T19:07:35.685Z,62
2023-09-27T19:10:05.963Z,62
2023-09-27T19:12:36.225Z,62
2023-09-27T19:15:07.157Z,62
2023-09-27T19:17:37.439Z,62
2023-09-27T19:20:06.471Z,62
2023-09-27T19:22:35.200Z,63
2023-09-27T19:25:04.978Z,62
2023-09-27T19:27:35.809Z,63
2023-09-27T19:30:06.683Z,62
2023-09-27T19:32:36.925Z,62
2023-09-27T19:35:07.793Z,63
2023-09-27T19:37:38.261Z,63
2023-09-27T19:40:08.710Z,63
2023-09-27T19:42:39.855Z,63
2023-09-27T19:45:10.706Z,63
2023-09-27T19:47:41.267Z,63
2023-09-27T19:50:12.260Z,63
2023-09-27T19:52:43.589Z,64
2023-09-27T19:55:13.410Z,64
2023-09-27T19:57:44.166Z,64
2023-09-27T20:00:17.185Z,64
2023-09-27T20:02:46.081Z,64
2023-09-27T20:05:17.347Z,65
2023-09-27T20:07:48.088Z,65
2023-09-27T20:10:19.372Z,65
2023-09-27T20:12:49.857Z,65
2023-09-27T20:15:20.415Z,64
2023-09-27T20:17:51.718Z,65
2023-09-27T20:20:22.735Z,65
2023-09-27T20:22:53.845Z,64
2023-09-27T20:25:25.584Z,65
2023-09-27T20:27:56.920Z,65
2023-09-27T20:30:27.688Z,66
2023-09-27T20:32:56.433Z,65
2023-09-27T20:35:27.352Z,65
2023-09-27T20:37:58.915Z,66
2023-09-27T20:40:29.732Z,67
2023-09-27T20:43:00.044Z,66
2023-09-27T20:45:30.809Z,66
2023-09-27T20:47:59.510Z,66
2023-09-27T20:50:30.402Z,67
2023-09-27T20:53:01.312Z,67
2023-09-27T20:55:32.370Z,67
2023-09-27T20:58:03.322Z,67
2023-09-27T21:00:34.221Z,67
2023-09-27T21:03:04.742Z,67
2023-09-27T21:05:34.952Z,67
2023-09-27T21:08:05.055Z,67
2023-09-27T21:10:35.229Z,68
2023-09-27T21:13:05.507Z,67
2023-09-27T21:15:37.017Z,67
2023-09-27T21:18:07.238Z,67
2023-09-27T21:20:38.273Z,67
2023-09-27T21:23:09.133Z,67
2023-09-27T21:25:39.975Z,67
2023-09-27T21:28:10.822Z,68
2023-09-27T21:30:41.453Z,68
2023-09-27T21:33:12.491Z,68
2023-09-27T21:35:43.037Z,69
2023-09-27T21:38:14.474Z,69
2023-09-27T21:40:45.552Z,70
2023-09-27T21:43:16.244Z,69
2023-09-27T21:45:47.894Z,69
2023-09-27T21:48:18.076Z,69
2023-09-27T21:50:49.013Z,69
2023-09-27T21:53:20.020Z,69
2023-09-27T21:55:48.987Z,69
2023-09-27T21:58:18.395Z,69
2023-09-27T22:00:49.305Z,69
2023-09-27T22:03:20.105Z,69
2023-09-27T22:05:50.974Z,69
2023-09-27T22:08:22.105Z,69
2023-09-27T22:10:53.192Z,69
2023-09-27T22:13:24.813Z,69
2023-09-27T22:15:55.986Z,69
2023-09-27T22:18:24.673Z,70
2023-09-27T22:20:55.624Z,70
2023-09-27T22:23:26.574Z,70
2023-09-27T22:25:55.807Z,70
2023-09-27T22:28:26.806Z,70
2023-09-27T22:30:57.359Z,70
2023-09-27T22:33:26.137Z,70
2023-09-27T22:35:56.948Z,70
2023-09-27T22:38:27.841Z,70
2023-09-27T22:40:58.193Z,70
2023-09-27T22:43:29.270Z,70
2023-09-27T22:45:59.771Z,70
2023-09-27T22:48:28.717Z,70
2023-09-27T22:51:00.009Z,70
2023-09-27T22:53:30.333Z,70
2023-09-27T22:56:01.392Z,70
2023-09-27T22:58:32.352Z,70
2023-09-27T23:01:03.106Z,70
2023-09-27T23:03:34.210Z,69
2023-09-27T23:06:05.524Z,70
2023-09-27T23:08:36.595Z,70
2023-09-27T23:11:08.166Z,70
2023-09-27T23:13:38.469Z,70
2023-09-27T23:16:09.697Z,70
2023-09-27T23:18:38.677Z,69
2023-09-27T23:21:09.109Z,70
2023-09-27T23:23:39.962Z,70
2023-09-27T23:26:09.070Z,70
2023-09-27T23:28:40.428Z,70
2023-09-27T23:31:10.941Z,70
2023-09-27T23:33:41.302Z,70
2023-09-27T23:36:11.700Z,70
2023-09-27T23:38:42.255Z,70
2023-09-27T23:41:13.585Z,70
2023-09-27T23:43:44.450Z,71
2023-09-27T23:46:15.939Z,71
2023-09-27T23:48:47.369Z,71
2023-09-27T23:51:17.782Z,71
2023-09-27T23:53:48.160Z,70
2023-09-27T23:56:18.891Z,71
2023-09-27T23:58:48.041Z,70
